createdAt,value
2019-01-20T00:00:33.940Z,347.60
2019-01-20T00:03:03.048Z,358.97
2019-01-20T00:05:32.314Z,425.33
2019-01-20T00:08:01.519Z,444.60
2019-01-20T00:10:31.878Z,457.10
2019-01-20T00:13:01.611Z,384.60
2019-01-20T00:15:33.487Z,356.10
2019-01-20T00:18:04.143Z,338.43
2019-01-20T00:20:33.580Z,341.17
2019-01-20T00:23:04.588Z,335.40
2019-01-20T00:25:34.461Z,319.10
2019-01-20T00:28:03.666Z,331.07
2019-01-20T00:30:33.215Z,329.57
2019-01-20T00:33:02.447Z,367.50
2019-01-20T00:35:31.625Z,350.50
2019-01-20T00:38:01.172Z,339.20
2019-01-20T00:40:30.406Z,354.20
2019-01-20T00:42:59.584Z,320.07
2019-01-20T00:45:29.161Z,334.67
2019-01-20T00:47:58.433Z,312.07
2019-01-20T00:50:27.599Z,320.73
2019-01-20T00:52:57.071Z,312.03
2019-01-20T00:55:26.264Z,314.20
2019-01-20T00:57:55.464Z,304.27
2019-01-20T01:00:28.244Z,381.33
2019-01-20T01:02:57.358Z,312.97
2019-01-20T01:05:26.598Z,283.30
2019-01-20T01:07:55.759Z,280.80
2019-01-20T01:10:24.844Z,290.10
2019-01-20T01:12:54.448Z,297.77
2019-01-20T01:15:23.687Z,309.60
2019-01-20T01:17:52.939Z,311.27
2019-01-20T01:20:22.133Z,319.00
2019-01-20T01:22:51.313Z,327.83
2019-01-20T01:25:33.512Z,347.10
2019-01-20T01:28:02.743Z,407.63
2019-01-20T01:30:31.876Z,445.97
2019-01-20T01:33:00.983Z,433.80
2019-01-20T01:35:30.102Z,387.90
2019-01-20T01:41:44.914Z,309.10
2019-01-20T01:44:15.217Z,290.23
2019-01-20T01:46:44.335Z,391.93
2019-01-20T01:49:13.524Z,399.47
2019-01-20T01:51:42.709Z,376.70
2019-01-20T01:54:11.930Z,385.80
2019-01-20T01:56:41.019Z,365.63
2019-01-20T01:59:10.186Z,383.10
2019-01-20T02:01:40.794Z,324.00
2019-01-20T02:04:09.957Z,328.37
2019-01-20T02:06:39.163Z,329.50
2019-01-20T02:09:08.993Z,330.50
2019-01-20T02:11:38.154Z,334.27
2019-01-20T02:14:07.247Z,341.83
2019-01-20T02:16:36.458Z,351.93
2019-01-20T02:19:05.642Z,422.43
2019-01-20T02:21:34.729Z,510.17
2019-01-20T02:24:03.922Z,428.00
2019-01-20T02:26:33.079Z,445.67
2019-01-20T02:29:02.205Z,394.67
2019-01-20T02:31:31.730Z,345.80
2019-01-20T02:34:01.000Z,328.87
2019-01-20T02:36:30.270Z,343.77
2019-01-20T02:38:59.487Z,368.40
2019-01-20T02:41:28.669Z,355.00
2019-01-20T02:43:57.828Z,319.23
2019-01-20T02:46:27.018Z,334.50
2019-01-20T02:48:56.205Z,333.77
2019-01-20T02:51:25.411Z,361.77
2019-01-20T02:53:54.626Z,325.47
2019-01-20T02:56:23.825Z,295.20
2019-01-20T02:58:53.045Z,311.53
2019-01-20T03:01:22.213Z,303.00
2019-01-20T03:03:51.405Z,271.87
2019-01-20T03:06:20.932Z,222.10
2019-01-20T03:08:50.020Z,234.13
2019-01-20T03:11:19.193Z,238.80
2019-01-20T03:13:49.343Z,264.63
2019-01-20T03:16:18.520Z,238.67
2019-01-20T03:18:47.919Z,245.80
2019-01-20T03:21:17.095Z,233.43
2019-01-20T03:23:46.268Z,242.17
2019-01-20T03:26:15.486Z,238.73
2019-01-20T03:28:45.171Z,245.97
2019-01-20T03:31:14.368Z,263.60
2019-01-20T03:33:43.470Z,280.17
2019-01-20T03:36:12.668Z,247.17
2019-01-20T03:38:41.847Z,257.47
2019-01-20T03:41:11.020Z,267.60
2019-01-20T03:43:40.232Z,268.93
2019-01-20T03:46:09.391Z,275.63
2019-01-20T03:48:38.547Z,269.87
2019-01-20T03:51:08.619Z,284.53
2019-01-20T03:53:38.228Z,282.17
2019-01-20T03:56:07.416Z,277.60
2019-01-20T03:58:36.584Z,285.10
2019-01-20T04:01:05.762Z,256.50
2019-01-20T04:03:34.956Z,262.90
2019-01-20T04:06:04.140Z,265.53
2019-01-20T04:08:33.226Z,305.47
2019-01-20T04:11:02.412Z,256.17
2019-01-20T04:13:31.583Z,264.70
2019-01-20T04:16:01.749Z,246.60
2019-01-20T04:18:30.944Z,260.67
2019-01-20T04:21:00.120Z,234.07
2019-01-20T04:23:29.343Z,247.50
2019-01-20T04:25:58.521Z,238.50
2019-01-20T04:28:27.710Z,232.53
2019-01-20T04:30:56.938Z,245.07
2019-01-20T04:33:26.109Z,265.83
2019-01-20T04:35:55.262Z,256.67
2019-01-20T04:38:24.458Z,268.07
2019-01-20T04:40:53.555Z,252.77
2019-01-20T04:43:23.382Z,267.23
2019-01-20T04:45:52.534Z,256.40
2019-01-20T04:48:21.715Z,264.43
2019-01-20T04:50:50.903Z,255.67
2019-01-20T04:53:20.067Z,250.07
2019-01-20T04:55:49.232Z,257.83
2019-01-20T04:58:18.758Z,255.87
2019-01-20T05:00:47.911Z,290.93
2019-01-20T05:03:17.079Z,287.73
2019-01-20T05:05:46.244Z,264.80
2019-01-20T05:08:15.403Z,271.23
2019-01-20T05:10:44.530Z,308.43
2019-01-20T05:13:13.702Z,292.50
2019-01-20T05:15:42.896Z,329.80
2019-01-20T05:18:12.064Z,616.90
2019-01-20T05:20:41.172Z,715.87
2019-01-20T05:23:10.384Z,489.63
2019-01-20T05:25:39.540Z,394.93
2019-01-20T05:28:08.753Z,380.53
2019-01-20T05:30:37.859Z,385.30
2019-01-20T05:33:07.336Z,367.37
2019-01-20T05:35:36.547Z,337.10
2019-01-20T05:38:05.749Z,382.23
2019-01-20T05:40:34.912Z,487.23
2019-01-20T05:43:04.185Z,365.33
2019-01-20T05:45:33.372Z,286.40
2019-01-20T05:48:02.582Z,294.53
2019-01-20T05:50:31.746Z,337.23
2019-01-20T05:53:00.935Z,361.43
2019-01-20T05:55:30.147Z,435.87
2019-01-20T05:57:59.519Z,396.63
2019-01-20T06:00:30.902Z,332.27
2019-01-20T06:03:00.123Z,299.10
2019-01-20T06:05:29.314Z,226.00
2019-01-20T06:07:58.539Z,242.50
2019-01-20T06:10:27.749Z,256.33
2019-01-20T06:12:56.937Z,246.33
2019-01-20T06:15:26.138Z,263.17
2019-01-20T06:17:55.248Z,242.73
2019-01-20T06:20:24.482Z,258.33
2019-01-20T06:22:53.651Z,232.40
2019-01-20T06:25:22.824Z,311.30
2019-01-20T06:27:52.051Z,323.33
2019-01-20T06:30:23.766Z,484.30
2019-01-20T06:32:52.870Z,495.87
2019-01-20T06:35:22.102Z,369.13
2019-01-20T06:37:51.301Z,367.90
2019-01-20T06:40:20.531Z,376.87
2019-01-20T06:42:49.782Z,388.07
2019-01-20T06:45:19.002Z,422.53
2019-01-20T06:47:48.201Z,473.80
2019-01-20T06:50:17.477Z,347.97
2019-01-20T06:52:46.676Z,363.67
2019-01-20T06:55:15.878Z,298.10
2019-01-20T06:57:45.484Z,276.60
2019-01-20T07:00:19.555Z,296.40
2019-01-20T07:02:48.741Z,280.10
2019-01-20T07:05:17.941Z,336.90
2019-01-20T07:07:47.140Z,310.67
2019-01-20T07:10:16.945Z,324.70
2019-01-20T07:12:46.166Z,300.93
2019-01-20T07:15:20.246Z,389.70
2019-01-20T07:17:49.427Z,266.93
2019-01-20T07:20:18.646Z,254.97
2019-01-20T07:22:47.856Z,246.20
2019-01-20T07:25:17.140Z,261.17
2019-01-20T07:27:46.389Z,255.50
2019-01-20T07:30:17.664Z,271.00
2019-01-20T07:32:46.868Z,295.57
2019-01-20T07:35:16.016Z,281.53
2019-01-20T07:37:45.782Z,247.53
2019-01-20T07:40:16.027Z,265.93
2019-01-20T07:42:45.227Z,335.93
2019-01-20T07:45:15.195Z,351.63
2019-01-20T07:47:44.388Z,261.07
2019-01-20T07:50:18.357Z,242.30
2019-01-20T07:52:47.569Z,247.00
2019-01-20T07:55:16.775Z,235.57
2019-01-20T07:57:45.978Z,246.73
2019-01-20T08:00:17.126Z,264.70
2019-01-20T08:02:46.370Z,289.27
2019-01-20T08:05:15.560Z,289.57
2019-01-20T08:07:44.784Z,323.57
2019-01-20T08:10:16.716Z,360.60
2019-01-20T08:12:45.938Z,339.87
2019-01-20T08:15:15.346Z,331.87
2019-01-20T08:17:44.919Z,321.63
2019-01-20T08:20:15.994Z,341.93
2019-01-20T08:22:45.197Z,340.63
2019-01-20T08:25:16.432Z,359.67
2019-01-20T08:27:45.635Z,361.47
2019-01-20T08:30:16.969Z,356.87
2019-01-20T08:32:48.578Z,275.47
2019-01-20T08:35:17.775Z,254.93
2019-01-20T08:37:46.991Z,250.13
2019-01-20T08:40:18.684Z,259.53
2019-01-20T08:42:47.923Z,269.83
2019-01-20T08:45:38.433Z,255.97
2019-01-20T08:48:13.190Z,240.70
2019-01-20T08:50:42.403Z,299.87
2019-01-20T08:53:11.683Z,346.00
2019-01-20T08:55:41.388Z,455.20
2019-01-20T08:58:11.281Z,428.27
2019-01-20T09:00:40.696Z,348.23
2019-01-20T09:03:10.043Z,296.83
2019-01-20T09:05:40.703Z,314.93
2019-01-20T09:08:10.067Z,430.40
2019-01-20T09:10:39.374Z,305.33
2019-01-20T09:13:09.782Z,239.73
2019-01-20T09:15:39.100Z,211.07
2019-01-20T09:18:08.322Z,213.13
2019-01-20T09:20:37.581Z,256.87
2019-01-20T09:23:06.823Z,251.80
2019-01-20T09:25:36.656Z,293.70
2019-01-20T09:28:08.152Z,241.03
2019-01-20T09:30:37.379Z,262.27
2019-01-20T09:33:06.585Z,203.07
2019-01-20T09:35:35.856Z,296.10
2019-01-20T09:38:05.957Z,217.70
2019-01-20T09:40:35.166Z,274.47
2019-01-20T09:43:04.671Z,273.73
2019-01-20T09:45:34.819Z,278.87
2019-01-20T09:48:04.290Z,267.87
2019-01-20T09:50:33.552Z,272.70
2019-01-20T09:53:02.782Z,249.70
2019-01-20T09:55:33.635Z,266.93
2019-01-20T09:58:03.167Z,228.10
2019-01-20T10:00:32.874Z,243.10
2019-01-20T10:03:02.299Z,211.13
2019-01-20T10:05:31.543Z,255.73
2019-01-20T10:08:00.797Z,267.80
2019-01-20T10:10:29.988Z,180.77
2019-01-20T10:12:59.188Z,176.83
2019-01-20T10:15:28.786Z,220.57
2019-01-20T10:17:57.993Z,189.60
2019-01-20T10:20:31.854Z,178.93
2019-01-20T10:23:01.066Z,171.27
2019-01-20T10:25:30.689Z,182.37
2019-01-20T10:27:59.957Z,192.37
2019-01-20T10:30:31.216Z,198.80
2019-01-20T10:33:00.466Z,132.73
2019-01-20T10:35:34.033Z,141.57
2019-01-20T10:38:05.687Z,150.87
2019-01-20T10:40:36.101Z,139.90
2019-01-20T10:43:05.378Z,150.13
2019-01-20T10:45:34.641Z,145.87
2019-01-20T10:48:03.892Z,129.27
2019-01-20T10:50:33.721Z,134.90
2019-01-20T10:53:02.913Z,142.00
2019-01-20T10:55:32.610Z,133.30
2019-01-20T10:58:03.568Z,137.27
2019-01-20T11:00:36.336Z,127.97
2019-01-20T11:03:05.921Z,108.53
2019-01-20T11:05:35.158Z,130.00
2019-01-20T11:08:04.668Z,188.50
2019-01-20T11:10:34.648Z,131.70
2019-01-20T11:13:07.652Z,135.03
2019-01-20T11:15:36.860Z,108.00
2019-01-20T11:18:06.146Z,111.87
2019-01-20T11:20:36.610Z,104.83
2019-01-20T11:23:05.979Z,102.10
2019-01-20T11:25:38.164Z,102.73
2019-01-20T11:28:07.452Z,92.17
2019-01-20T11:30:36.685Z,156.10
2019-01-20T11:33:06.224Z,107.60
2019-01-20T11:35:36.866Z,100.57
2019-01-20T11:38:06.059Z,119.33
2019-01-20T11:40:35.291Z,92.67
2019-01-20T11:43:04.547Z,75.90
2019-01-20T11:45:35.816Z,74.67
2019-01-20T11:48:17.593Z,76.83
2019-01-20T11:50:48.085Z,76.63
2019-01-20T11:53:17.389Z,72.53
2019-01-20T11:55:46.620Z,73.60
2019-01-20T11:58:17.502Z,74.77
2019-01-20T12:03:55.959Z,117.00
2019-01-20T12:06:25.205Z,90.77
2019-01-20T12:08:54.477Z,87.30
2019-01-20T12:11:23.781Z,86.23
2019-01-20T12:13:53.391Z,77.20
2019-01-20T12:16:22.614Z,82.47
2019-01-20T12:18:52.060Z,125.70
2019-01-20T12:21:21.354Z,255.90
2019-01-20T12:23:51.648Z,105.70
2019-01-20T12:26:20.906Z,142.60
2019-01-20T12:28:50.164Z,129.23
2019-01-20T12:31:19.457Z,129.27
2019-01-20T12:33:48.883Z,120.87
2019-01-20T12:36:18.086Z,121.97
2019-01-20T12:38:47.342Z,125.03
2019-01-20T12:41:16.714Z,127.33
2019-01-20T12:43:46.560Z,134.13
2019-01-20T12:46:17.914Z,122.10
2019-01-20T12:48:47.145Z,128.77
2019-01-20T12:51:16.413Z,131.67
2019-01-20T12:53:46.828Z,132.27
2019-01-20T12:56:16.027Z,131.33
2019-01-20T12:58:46.749Z,127.23
2019-01-20T13:01:15.977Z,124.80
2019-01-20T13:03:45.246Z,143.00
2019-01-20T13:06:14.478Z,117.43
2019-01-20T13:08:43.704Z,109.30
2019-01-20T13:11:12.981Z,123.20
2019-01-20T13:13:42.269Z,138.27
2019-01-20T13:16:11.554Z,126.17
2019-01-20T13:18:41.224Z,119.10
2019-01-20T13:21:10.815Z,117.13
2019-01-20T13:23:40.125Z,119.57
2019-01-20T13:26:09.418Z,142.17
2019-01-20T13:28:38.674Z,129.37
2019-01-20T13:31:07.884Z,190.80
2019-01-20T13:33:37.329Z,136.73
2019-01-20T13:36:07.840Z,128.70
2019-01-20T13:38:37.088Z,111.80
2019-01-20T13:41:19.602Z,208.73
2019-01-20T13:43:49.311Z,198.57
2019-01-20T13:46:19.417Z,144.80
2019-01-20T13:48:48.851Z,151.10
2019-01-20T13:51:18.242Z,168.97
2019-01-20T13:53:47.482Z,151.03
2019-01-20T13:56:17.097Z,132.60
2019-01-20T13:58:46.419Z,221.50
2019-01-20T14:01:18.388Z,202.40
2019-01-20T14:03:47.838Z,169.33
2019-01-20T14:06:17.016Z,198.70
2019-01-20T14:08:46.252Z,329.30
2019-01-20T14:11:15.493Z,191.47
2019-01-20T14:13:47.002Z,190.37
2019-01-20T14:16:16.280Z,159.90
2019-01-20T14:18:50.257Z,141.37
2019-01-20T14:21:19.521Z,131.33
2019-01-20T14:23:49.340Z,133.63
2019-01-20T14:26:20.000Z,146.90
2019-01-20T14:28:49.260Z,132.80
2019-01-20T14:31:18.463Z,135.40
2019-01-20T14:33:47.679Z,156.47
2019-01-20T14:36:18.272Z,156.27
2019-01-20T14:38:47.450Z,178.87
2019-01-20T14:41:16.669Z,204.83
2019-01-20T14:43:45.949Z,255.03
2019-01-20T14:46:15.230Z,245.17
2019-01-20T14:48:45.768Z,225.00
2019-01-20T14:51:16.605Z,225.40
2019-01-20T14:53:46.959Z,381.20
2019-01-20T14:56:16.223Z,523.03
2019-01-20T14:58:48.183Z,224.83
2019-01-20T15:01:17.533Z,206.03
2019-01-20T15:03:46.884Z,235.33
2019-01-20T15:06:16.931Z,234.70
2019-01-20T15:08:46.184Z,184.07
2019-01-20T15:11:15.447Z,192.73
2019-01-20T15:13:44.841Z,196.53
2019-01-20T15:16:14.136Z,225.33
2019-01-20T15:18:43.449Z,240.67
2019-01-20T15:21:12.660Z,233.50
2019-01-20T15:23:41.921Z,222.07
2019-01-20T15:26:11.503Z,244.70
2019-01-20T15:28:41.361Z,243.23
2019-01-20T15:31:10.582Z,229.20
2019-01-20T15:33:39.832Z,230.23
2019-01-20T15:36:09.876Z,185.27
2019-01-20T15:38:39.116Z,202.73
2019-01-20T15:41:08.360Z,226.70
2019-01-20T15:43:37.658Z,273.00
2019-01-20T15:46:06.919Z,293.33
2019-01-20T15:48:36.128Z,289.80
2019-01-20T15:51:05.510Z,354.37
2019-01-20T15:53:34.757Z,511.83
2019-01-20T15:56:04.205Z,528.90
2019-01-20T15:58:33.435Z,755.43
2019-01-20T16:01:03.026Z,1005.03
2019-01-20T16:03:33.295Z,925.33
2019-01-20T16:06:02.563Z,733.97
2019-01-20T16:08:31.802Z,732.67
2019-01-20T16:11:01.100Z,752.70
2019-01-20T16:13:30.399Z,632.27
2019-01-20T16:16:00.332Z,782.93
2019-01-20T16:18:29.971Z,966.67
2019-01-20T16:21:01.392Z,864.97
2019-01-20T16:23:30.738Z,873.63
2019-01-20T16:26:00.003Z,810.27
2019-01-20T16:28:31.372Z,790.17
2019-01-20T16:31:00.638Z,667.47
2019-01-20T16:33:29.871Z,702.60
2019-01-20T16:35:59.162Z,759.40
2019-01-20T16:38:28.479Z,713.07
2019-01-20T16:40:58.991Z,784.07
2019-01-20T16:43:28.389Z,688.67
2019-01-20T16:45:57.705Z,632.17
2019-01-20T16:48:27.436Z,562.53
2019-01-20T16:50:59.077Z,533.07
2019-01-20T16:53:28.478Z,423.20
2019-01-20T16:55:58.198Z,424.07
2019-01-20T16:58:27.479Z,529.63
2019-01-20T17:00:56.760Z,435.47
2019-01-20T17:03:26.351Z,342.90
2019-01-20T17:05:55.605Z,456.30
2019-01-20T17:08:25.721Z,531.83
2019-01-20T17:10:56.105Z,612.23
2019-01-20T17:13:25.635Z,561.63
2019-01-20T17:15:54.879Z,530.17
2019-01-20T17:18:24.167Z,475.23
2019-01-20T17:20:53.452Z,473.27
2019-01-20T17:23:22.682Z,451.27
2019-01-20T17:25:51.962Z,374.30
2019-01-20T17:28:21.239Z,359.17
2019-01-20T17:30:50.472Z,360.93
2019-01-20T17:33:19.819Z,393.70
2019-01-20T17:35:49.953Z,456.50
2019-01-20T17:38:19.214Z,397.20
2019-01-20T17:40:49.314Z,381.23
2019-01-20T17:43:18.569Z,368.57
2019-01-20T17:45:50.038Z,371.57
2019-01-20T17:48:20.057Z,380.73
2019-01-20T17:50:49.954Z,386.40
2019-01-20T17:53:19.230Z,504.87
2019-01-20T17:55:48.559Z,475.23
2019-01-20T17:58:18.514Z,474.90
2019-01-20T18:00:50.977Z,410.20
2019-01-20T18:03:20.251Z,515.80
2019-01-20T18:05:49.849Z,642.53
2019-01-20T18:08:19.585Z,609.23
2019-01-20T18:10:48.917Z,651.73
2019-01-20T18:13:18.366Z,698.73
2019-01-20T18:15:54.068Z,688.73
2019-01-20T18:18:18.710Z,713.57
2019-01-20T18:20:48.003Z,720.73
2019-01-20T18:23:17.884Z,746.93
2019-01-20T18:25:47.697Z,637.37
2019-01-20T18:28:17.080Z,610.40
2019-01-20T18:30:46.699Z,616.60
2019-01-20T18:33:16.211Z,734.83
2019-01-20T18:35:45.756Z,668.60
2019-01-20T18:38:15.065Z,644.73
2019-01-20T18:40:44.316Z,619.90
2019-01-20T18:43:13.521Z,648.93
2019-01-20T18:45:43.142Z,622.23
2019-01-20T18:48:12.433Z,937.57
2019-01-20T18:50:41.670Z,813.43
2019-01-20T18:53:10.906Z,837.50
2019-01-20T18:55:40.108Z,868.30
2019-01-20T18:58:09.379Z,860.70
2019-01-20T19:00:44.463Z,700.77
2019-01-20T19:03:13.721Z,640.47
2019-01-20T19:05:42.995Z,529.93
2019-01-20T19:08:12.416Z,673.00
2019-01-20T19:10:41.687Z,633.20
2019-01-20T19:13:12.765Z,472.07
2019-01-20T19:15:42.229Z,493.63
2019-01-20T19:18:18.711Z,368.73
2019-01-20T19:20:43.146Z,727.47
2019-01-20T19:23:13.766Z,943.20
2019-01-20T19:25:43.100Z,836.43
2019-01-20T19:28:12.633Z,816.20
2019-01-20T19:30:44.417Z,693.50
2019-01-20T19:33:13.793Z,672.03
2019-01-20T19:35:43.005Z,768.37
2019-01-20T19:38:12.264Z,1118.00
2019-01-20T19:40:41.496Z,870.40
2019-01-20T19:43:10.809Z,784.57
2019-01-20T19:45:40.463Z,870.17
2019-01-20T19:48:15.691Z,552.20
2019-01-20T19:50:44.141Z,545.50
2019-01-20T19:53:13.440Z,585.97
2019-01-20T19:55:42.814Z,877.27
2019-01-20T19:58:12.377Z,823.90
2019-01-20T20:00:41.584Z,893.77
2019-01-20T20:03:11.828Z,944.40
2019-01-20T20:05:42.356Z,759.83
2019-01-20T20:08:11.647Z,798.17
2019-01-20T20:10:40.887Z,694.63
2019-01-20T20:13:10.089Z,759.73
2019-01-20T20:15:39.436Z,674.10
2019-01-20T20:18:08.686Z,601.10
2019-01-20T20:20:37.940Z,564.60
2019-01-20T20:23:07.187Z,467.43
2019-01-20T20:25:36.471Z,514.13
2019-01-20T20:28:05.966Z,524.27
2019-01-20T20:30:37.021Z,419.67
2019-01-20T20:33:06.769Z,358.87
2019-01-20T20:35:36.078Z,404.67
2019-01-20T20:38:05.357Z,499.70
2019-01-20T20:40:34.675Z,473.40
2019-01-20T20:43:03.909Z,544.27
2019-01-20T20:45:33.754Z,413.57
2019-01-20T20:48:03.031Z,439.40
2019-01-20T20:50:32.350Z,535.40
2019-01-20T20:53:01.617Z,544.23
2019-01-20T20:55:31.188Z,563.67
2019-01-20T20:58:00.591Z,446.40
2019-01-20T21:00:36.205Z,376.63
2019-01-20T21:03:09.508Z,442.93
2019-01-20T21:05:38.908Z,456.90
2019-01-20T21:08:13.484Z,526.27
2019-01-20T21:10:43.606Z,550.90
2019-01-20T21:13:14.884Z,519.97
2019-01-20T21:15:44.244Z,416.30
2019-01-20T21:18:13.603Z,469.87
2019-01-20T21:20:43.322Z,508.20
2019-01-20T21:23:12.762Z,378.40
2019-01-20T21:25:42.095Z,376.00
2019-01-20T21:28:11.461Z,335.43
2019-01-20T21:30:41.861Z,390.57
2019-01-20T21:33:11.086Z,368.47
2019-01-20T21:35:40.331Z,348.73
2019-01-20T21:38:09.533Z,294.30
2019-01-20T21:40:39.259Z,284.43
2019-01-20T21:43:08.568Z,333.00
2019-01-20T21:45:38.210Z,473.20
2019-01-20T21:48:07.539Z,607.67
2019-01-20T21:50:36.739Z,433.70
2019-01-20T21:57:07.180Z,323.60
2019-01-20T21:59:36.520Z,343.87
2019-01-20T22:02:05.696Z,271.77
2019-01-20T22:04:35.670Z,281.40
2019-01-20T22:07:04.902Z,311.60
2019-01-20T22:09:34.084Z,211.30
2019-01-20T22:12:03.297Z,270.03
2019-01-20T22:14:33.143Z,255.07
2019-01-20T22:17:02.315Z,219.30
2019-01-20T22:19:35.790Z,248.53
2019-01-20T22:22:08.490Z,292.83
2019-01-20T22:24:37.724Z,207.07
2019-01-20T22:27:06.939Z,247.60
2019-01-20T22:29:37.127Z,262.50
2019-01-20T22:32:06.894Z,219.47
2019-01-20T22:34:36.071Z,242.83
2019-01-20T22:37:08.850Z,374.97
2019-01-20T22:39:38.031Z,239.23
2019-01-20T22:42:12.261Z,328.77
2019-01-20T22:44:41.404Z,320.40
2019-01-20T22:47:10.618Z,535.27
2019-01-20T22:49:42.886Z,248.53
2019-01-20T22:52:12.045Z,303.43
2019-01-20T22:54:41.269Z,428.43
2019-01-20T22:57:10.492Z,580.67
2019-01-20T22:59:39.665Z,344.50
2019-01-20T23:02:08.833Z,280.10
2019-01-20T23:04:38.465Z,391.27
2019-01-20T23:07:07.707Z,391.80
2019-01-20T23:09:37.002Z,312.73
2019-01-20T23:12:06.170Z,470.73
2019-01-20T23:14:35.346Z,265.93
2019-01-20T23:17:07.913Z,569.80
2019-01-20T23:19:35.366Z,335.70
2019-01-20T23:22:04.531Z,216.07
2019-01-20T23:24:34.019Z,200.37
2019-01-20T23:27:03.124Z,182.60
2019-01-20T23:29:32.256Z,200.17
2019-01-20T23:32:01.447Z,363.83
2019-01-20T23:34:30.613Z,246.93
2019-01-20T23:36:59.729Z,335.37
2019-01-20T23:39:28.896Z,255.83
2019-01-20T23:41:58.076Z,213.90
2019-01-20T23:44:28.788Z,184.30
2019-01-20T23:46:58.544Z,173.27
2019-01-20T23:49:27.724Z,168.63
2019-01-20T23:51:56.992Z,198.47
2019-01-20T23:54:26.213Z,201.63
2019-01-20T23:56:55.366Z,772.27
2019-01-20T23:59:24.543Z,356.87
